Αναφορές Αεροδρομίων

 

KSJC - San Jose, California, USA
Distance from station: ΒΑ 14km
Ενημερώθηκε: 02/12/2022 06:53
Few Clouds
Few Clouds
 Ανεμος από calm
Ανεμος: Απνοια
Θερμοκρασία: 8°C
Σημείο Δρόσου: 5°C
Υγρασία: 82%
Βαρόμετρο: 1016.9 hPa
Clouds: Few Clouds
Visibility: 16 km
Cloud details: Few Clouds 945 m
2022/12/02 04:53 KSJC 020453Z 00000KT 10SM FEW031 08/05 A3003 RMK AO2 SLP169 T00830050
KNUQ - Moffett Nas/Mtn, California, USA
Distance from station: Β 14km
Ενημερώθηκε: 02/12/2022 07:35
Αίθριος
Αίθριος
 Ανεμος από ΝΔ
Ανεμος: ΝΔ 7 km/h
Θερμοκρασία: 6°C
Wind Chill: 4°C
Σημείο Δρόσου: 5°C
Υγρασία: 93%
Βαρόμετρο: 1017.3 hPa
Clouds: Αίθριος
Visibility: 16 km
2022/12/02 05:35 KNUQ 020535Z AUTO 23004KT 10SM CLR 06/05 A3004 RMK AO2
 
KPAO - Palo Alto, California, USA
Distance from station: ΒΒΔ 23km
Ενημερώθηκε: 02/12/2022 06:47
Αίθριος
Αίθριος
 Ανεμος από ΝΔ
Ανεμος: ΝΔ 6 km/h
Θερμοκρασία: 6°C
Σημείο Δρόσου: 4°C
Υγρασία: 87%
Βαρόμετρο: 1016.9 hPa
Clouds: Αίθριος
Visibility: 16 km
2022/12/02 04:47 KPAO 020447Z 22003KT 10SM SKC 06/04 A3003 RMK LAST
KRHV - San Jose/Reid, California, USA
Distance from station: ΑΒΑ 19km
Ενημερώθηκε: 02/12/2022 06:47
Few Clouds
Few Clouds
 Ανεμος από calm
Ανεμος: Απνοια
Θερμοκρασία: 7°C
Σημείο Δρόσου: 6°C
Υγρασία: 93%
Βαρόμετρο: 1016.9 hPa
Clouds: Few Clouds
Visibility: 16 km
Cloud details: Few Clouds 610 m
2022/12/02 04:47 KRHV 020447Z 00000KT 10SM FEW020 07/06 A3003
 
KOAK - Oakland, California, USA
Distance from station: ΒΒΔ 50km
Ενημερώθηκε: 02/12/2022 06:53
Αίθριος
Αίθριος
 Ανεμος από ΒΔ
Ανεμος: ΒΔ 13 km/h
Θερμοκρασία: 8°C
Wind Chill: 6°C
Σημείο Δρόσου: 3°C
Υγρασία: 71%
Βαρόμετρο: 1016.6 hPa
Clouds: Αίθριος
Visibility: 16 km
2022/12/02 04:53 KOAK 020453Z 31007KT 10SM CLR 08/03 A3002 RMK AO2 SLP166 T00780028
KSQL - San Carlos Airpo, California, USA
Distance from station: ΒΔ 34km
Ενημερώθηκε: 02/12/2022 07:35

 Ανεμος από Δ
Ανεμος: Δ 9 km/h
Θερμοκρασία: 7°C
Wind Chill: 6°C
Σημείο Δρόσου: 4°C
Υγρασία: 81%
Βαρόμετρο: 1017.6 hPa
Visibility: 16 km
2022/12/02 05:35 KSQL 020535Z AUTO 27005KT 10SM 07/04 A3005 RMK AO2
 
KSFO - San Francisco, California, USA
Distance from station: ΒΔ 49km
Ενημερώθηκε: 02/12/2022 06:56
Few Clouds
Few Clouds
 Ανεμος από Δ
Ανεμος: Δ 17 km/h
Θερμοκρασία: 8°C
Wind Chill: 5°C
Σημείο Δρόσου: 4°C
Υγρασία: 76%
Βαρόμετρο: 1016.6 hPa
Clouds: Few Clouds
Visibility: 16 km
Cloud details: Few Clouds 518 m
Few Clouds 5486 m
2022/12/02 04:56 KSFO 020456Z 28009KT 10SM FEW017 FEW180 08/04 A3002 RMK AO2 SLP166 T00830039
KE16 - San Martin, California, USA
Distance from station: ΑΝΑ 43km
Ενημερώθηκε: 02/12/2022 07:35
Συννεφιά
Συννεφιά
 Ανεμος από calm
Ανεμος: Απνοια
Θερμοκρασία: 6°C
Σημείο Δρόσου: 6°C
Υγρασία: 100%
Βαρόμετρο: 1018.3 hPa
Clouds: Συννεφιά
Visibility: 16 km
Cloud details: Συννεφιά 640 m
2022/12/02 05:35 KE16 020535Z AUTO 00000KT 10SM OVC021 06/06 A3007 RMK AO2
 
KWVI - Watsonville, California, USA
Distance from station: ΝΝΑ 44km
Ενημερώθηκε: 02/12/2022 06:53
Αίθριος
Αίθριος
 Ανεμος από calm
Ανεμος: Απνοια
Θερμοκρασία: 5°C
Σημείο Δρόσου: 5°C
Υγρασία: 100%
Βαρόμετρο: 1017.3 hPa
Clouds: Αίθριος
Visibility: 14 km
2022/12/02 04:53 KWVI 020453Z AUTO 00000KT 9SM CLR 05/05 A3004 RMK AO2 SLP172 T00500050
KHAF - Half Moon Bay, California, USA
Distance from station: ΔΒΔ 50km
Ενημερώθηκε: 02/12/2022 07:35
Αίθριος
Αίθριος
 Ανεμος από calm
Ανεμος: Απνοια
Θερμοκρασία: 6°C
Σημείο Δρόσου: 5°C
Υγρασία: 93%
Βαρόμετρο: 1017.6 hPa
Clouds: Αίθριος
Visibility: 16 km
2022/12/02 05:35 KHAF 020535Z AUTO 00000KT 10SM CLR 06/05 A3005 RMK AO2
 
KHWD - Hayward, California, USA
Distance from station: Β 44km
Ενημερώθηκε: 02/12/2022 06:54
Few Clouds
Few Clouds
 Ανεμος από ΒΔ
Ανεμος: ΒΔ 6 km/h
Θερμοκρασία: 7°C
Σημείο Δρόσου: 3°C
Υγρασία: 76%
Βαρόμετρο: 1016.6 hPa
Clouds: Few Clouds
Visibility: 16 km
Cloud details: Few Clouds 427 m
2022/12/02 04:54 KHWD 020454Z AUTO 32003KT 10SM FEW014 07/03 A3002 RMK AO2 SLP175 T00720028 $
KLVK - Livermore, California, USA
Distance from station: ΒΒΑ 51km
Ενημερώθηκε: 02/12/2022 06:53
Αίθριος
Αίθριος
 Ανεμος από ΔΝΔ
Ανεμος: ΔΝΔ 9 km/h
Θερμοκρασία: 6°C
Wind Chill: 4°C
Σημείο Δρόσου: 3°C
Υγρασία: 81%
Βαρόμετρο: 1015.9 hPa
Clouds: Αίθριος
Visibility: 16 km
2022/12/02 04:53 KLVK 020453Z 24005KT 10SM CLR 06/03 A3000 RMK AO2 SLP159 T00560028